• Join FlightAware (Why Join?)
  • Login
  • US Flag 
02:00PM EDT


 

Airport Tracker/Info


-or-


 

Live Flight TrackerFlight Track Log ✈ AWE3390 ✈ 29-Apr-2013 ✈ KRSW - KDCA

Flight Track Log - Related Links

Times and Time Zones

All times are in EDT time to prevent confusion due to time zone crossing. See the AWE3390 flight status page for this flight to view local times or setup timezone preferences in your user account.

Time Position Orientation Groundspeed Altitude Reporting Facility
EDT Latitude Longitude Course Direction KTS MPH feet Rate Location/Type
12:06PM 26.8587 -81.7333 North  Level FlightAware Approximate
12:06PM 26.6803 -81.7200 348° North 243 280 5,000  Level Miami Center
12:07PM 26.9676 -81.7333 North  Level FlightAware Approximate
12:07PM 26.7592 -81.7278 355° North 263 303 8,100  Level Miami Center
12:08PM 27.0730 -81.7558 340° North  Level FlightAware Approximate
12:08PM 26.8425 -81.7336 356° North 284 327 10,400  Level Miami Center
12:09PM 27.1780 -81.7871 343° North  Level FlightAware Approximate
12:09PM 26.9383 -81.7400 357° North 310 357 11,200  Level Miami Center
12:10PM 27.2816 -81.8241 336° Northwest  Level FlightAware Approximate
12:10PM 27.0467 -81.7517 355° North 353 406 12,800  Level Miami Center
12:11PM 27.3843 -81.8576 339° North  Level FlightAware Approximate
12:11PM 27.1517 -81.7886 343° North 374 430 14,700  Level Miami Center
12:12PM 27.4862 -81.9007 348° North  Level FlightAware Approximate
12:12PM 27.2592 -81.8236 344° North 388 447 16,000  Level Miami Center
12:13PM 27.3642 -81.8608 343° North 394 453 17,100 1,320 Climbing Miami Center
12:14PM 27.4683 -81.8653 358° North 399 459 18,700 1,680 Climbing Miami Center
12:15PM 27.5917 -81.8053 23° Northeast 407 468 20,500 1,620 Climbing Miami Center
12:16PM 27.7061 -81.7514 23° Northeast 426 490 22,000 1,260 Climbing Miami Center
12:17PM 27.7994 -81.7064 23° Northeast 441 507 23,100 1,200 Climbing Miami Center
12:18PM 27.9417 -81.6372 23° Northeast 447 514 24,400 1,200 Climbing Miami Center
12:19PM 28.0672 -81.6189 North 447 514 25,500 1,020 Climbing Miami Center
12:20PM 28.1989 -81.6150 North 457 526 26,500 900 Climbing Miami Center
12:21PM 28.3264 -81.6086 North 463 533 27,400 1,020 Climbing Miami Center
12:22PM 28.4581 -81.6000 North 463 533 28,600 1,200 Climbing Miami Center
12:23PM 28.5869 -81.6150 354° North 462 532 29,800 1,080 Climbing Miami Center
12:24PM 28.7156 -81.6347 352° North 457 526 30,800 900 Climbing Miami Center
12:25PM 28.7950 -81.6369 359° North 458 527 31,300 840 Climbing Jacksonville Center
12:26PM 28.9222 -81.6281 North 468 539 32,200 900 Climbing Jacksonville Center
12:27PM 29.0514 -81.6169 North 468 539 33,100 900 Climbing Jacksonville Center
12:28PM 29.1786 -81.6083 North 458 527 34,100 900 Climbing Jacksonville Center
12:29PM 29.3017 -81.5972 North 453 521 34,900 420 Climbing Jacksonville Center
12:30PM 29.4289 -81.5883 North 448 516 35,000  Climbing Jacksonville Center
12:31PM 29.5603 -81.5769 North 455 524 35,000  Level Jacksonville Center
12:32PM 29.6939 -81.5656 North 466 536 35,000  Level Jacksonville Center
12:33PM 29.8314 -81.5542 North 482 555 35,000  Level Jacksonville Center
12:34PM 29.9650 -81.5428 North 482 555 35,000  Level Jacksonville Center
12:35PM 30.0986 -81.5314 North 476 548 35,000  Level Jacksonville Center
12:36PM 30.2342 -81.5172 North 476 548 35,000  Level Jacksonville Center
12:37PM 30.3572 -81.5083 North 481 554 35,000  Level Jacksonville Center
12:38PM 30.4906 -81.4967 North 481 554 35,000  Level Jacksonville Center
12:39PM 30.6283 -81.4875 North 481 554 35,000  Level Jacksonville Center
12:40PM 30.7619 -81.4758 North 481 554 35,000  Level Jacksonville Center
12:41PM 30.8864 -81.4183 22° Northeast 470 541 35,000  Level Jacksonville Center
12:42PM 31.0089 -81.3461 27° Northeast 477 549 35,000  Level Jacksonville Center
12:43PM 31.1331 -81.2689 28° Northeast 485 558 35,000  Level Jacksonville Center
12:44PM 31.2553 -81.1939 28° Northeast 485 558 35,000  Level Jacksonville Center
12:45PM 31.3775 -81.1161 29° Northeast 492 566 35,000  Level Jacksonville Center
12:46PM 31.5119 -81.0333 28° Northeast 492 566 35,000  Level Jacksonville Center
12:47PM 31.6339 -80.9575 28° Northeast 492 566 35,000  Level Jacksonville Center
12:48PM 31.7581 -80.8817 27° Northeast 492 566 35,000  Level Jacksonville Center
12:49PM 31.8800 -80.8033 29° Northeast 492 566 35,000  Level Jacksonville Center
12:50PM 31.9936 -80.7344 27° Northeast 492 566 35,000  Level Jacksonville Center
12:51PM 32.1175 -80.6581 28° Northeast 487 560 35,000  Level Jacksonville Center
12:52PM 32.2414 -80.5789 28° Northeast 487 560 35,000  Level Jacksonville Center
12:53PM 32.3631 -80.4994 29° Northeast 487 560 35,000  Level Jacksonville Center
12:54PM 32.4911 -80.4197 28° Northeast 492 566 35,000  Level Jacksonville Center
12:55PM 32.6147 -80.3400 29° Northeast 497 572 35,000  Level Jacksonville Center
12:56PM 32.7383 -80.2600 29° Northeast 497 572 35,000  Level Jacksonville Center
12:57PM 32.8597 -80.1797 29° Northeast 497 572 35,000  Level Jacksonville Center
12:58PM 32.9917 -80.1014 26° Northeast 502 578 35,000  Level Jacksonville Center
12:59PM 33.1150 -80.0158 30° Northeast 502 578 35,000  Level Jacksonville Center
01:00PM 33.2383 -79.9397 27° Northeast 502 578 35,000  Level Jacksonville Center
01:01PM 33.3803 -79.8481 28° Northeast 513 590 35,000  Level Jacksonville Center
01:02PM 33.5056 -79.7664 29° Northeast 513 590 35,000  Level Jacksonville Center
01:03PM 33.6308 -79.6822 29° Northeast 513 590 35,000  Level Jacksonville Center
01:04PM 33.7558 -79.6028 28° Northeast 507 583 35,000  Level Jacksonville Center
01:05PM 33.8811 -79.5181 29° Northeast 507 583 35,000  Level Jacksonville Center
01:06PM 34.0081 -79.4356 28° Northeast 512 589 35,000  Level Jacksonville Center
01:08PM 34.2294 -79.2917 28° Northeast 505 581 35,000  Level Washington Center
01:10PM 34.4736 -79.1467 26° Northeast 510 587 35,000  Level Washington Center
01:11PM 34.6011 -79.0714 26° Northeast 505 581 35,000  Level Washington Center
01:12PM 34.7306 -78.9961 26° Northeast 505 581 35,000  Level Washington Center
01:13PM 34.8578 -78.9228 25° Northeast 499 574 35,000  Level Washington Center
01:14PM 34.9894 -78.8447 26° Northeast 504 580 35,000  Level Washington Center
01:15PM 35.1208 -78.7686 25° Northeast 504 580 35,000  Level Washington Center
01:16PM 35.2500 -78.6925 26° Northeast 510 587 35,000  Level Washington Center
01:17PM 35.3942 -78.6061 26° Northeast 515 593 35,000  Level Washington Center
01:18PM 35.5128 -78.5367 25° Northeast 515 593 35,000  Level Washington Center
01:19PM 35.6589 -78.4500 26° Northeast 516 594 35,000  Level Washington Center
01:20PM 35.7878 -78.3753 25° Northeast 516 594 35,000  Level Washington Center
01:21PM 35.9125 -78.3003 26° Northeast 505 581 35,000 -840 Level Washington Center
01:22PM 36.0417 -78.2225 26° Northeast 505 581 33,400 -2,220 Descending Washington Center
01:23PM 36.1706 -78.1444 26° Northeast 505 581 30,600 -2,820 Descending Washington Center
01:24PM 36.3036 -78.0664 25° Northeast 510 587 27,800 -1,800 Descending Washington Center
01:25PM 36.3989 -78.0047 28° Northeast 504 580 27,000 -420 Descending Washington Center
01:26PM 36.5339 -77.9236 26° Northeast 492 566 27,000  Level Washington Center
01:27PM 36.6583 -77.8550 24° Northeast 487 560 27,000  Level Washington Center
01:28PM 36.7867 -77.8017 18° North 487 560 27,000  Level Washington Center
01:29PM 36.9169 -77.7481 18° North 487 560 27,000 -300 Level Washington Center
01:30PM 37.0517 -77.6894 19° North 492 566 26,500 -900 Descending Washington Center
01:31PM 37.1839 -77.6331 19° North 497 572 25,300 -1,200 Descending Washington Center
01:32PM 37.3142 -77.5792 18° North 497 572 24,100 -1,260 Descending Washington Center
01:33PM 37.4422 -77.5247 19° North 484 557 22,900 -1,080 Descending Washington Center
01:34PM 37.5661 -77.4703 19° North 479 551 22,000 -540 Descending Washington Center
01:35PM 37.6881 -77.4183 19° North 474 545 21,900 -1,200 Descending Washington Center
01:36PM 37.8036 -77.3658 20° North 455 524 19,600 -2,280 Descending Washington Center
01:37PM 37.9125 -77.3211 18° North 430 495 17,500 -2,100 Descending Washington Center
01:38PM 38.0114 -77.2758 20° North 397 457 15,400 -2,100 Descending Washington Center
01:39PM 38.1181 -77.2361 16° North 368 423 13,300 -2,040 Descending Washington Center
01:40PM 38.2106 -77.1958 19° North 357 411 11,400 -1,680 Descending Washington Center
01:41PM 38.2903 -77.1578 21° North 351 404 10,000 -780 Descending Washington Center
01:42PM 38.3906 -77.1386 North 340 391 9,900 -60 Descending Washington Center
01:43PM 38.4825 -77.1194 North 334 384 9,900  Level Washington Center
01:44PM 38.5767 -77.1000 North 334 384 10,000 -240 Climbing Washington Center
01:45PM 38.6622 -77.0806 10° North 329 379 9,500 -1,200 Descending Washington Center
01:46PM 38.7397 -77.0661 North 302 348 7,700 -1,740 Descending Washington Center
01:47PM 38.8142 -77.1022 339° North 275 316 6,000 -900 Descending Washington Center
01:48PM 38.8697 -77.1675 318° Northwest 270 311 6,000 -300 Level Washington Center
01:49PM 38.9128 -77.2244 314° West 245 282 5,400 -480 Descending Washington Center
01:50PM 38.9500 -77.2667 319° Northwest 193 222 5,000 -240 Descending Potomac TRACON
01:51PM 39.0000 -77.3000 333° Northwest 207 238 5,000 -360 Level Potomac TRACON
01:52PM 39.0333 -77.2500 49° Northeast 172 198 4,400 -600 Descending Potomac TRACON
01:53PM 39.0000 -77.2167 142° Southeast 146 168 3,800 -660 Descending Potomac TRACON
01:54PM 38.9833 -77.1667 113° Southeast 139 160 3,100 -720 Descending Potomac TRACON
01:55PM 38.9500 -77.1333 142° Southeast 134 154 2,400 -720 Descending Potomac TRACON